Time;durP1;ratioP1;P1;durP2;ratioP2;P2;SDS_P1;SDS_P2;PMS_P1;PMS_P2;Temp;Humidity;BMP_temperature;BMP_pressure;BME280_temperature;BME280_humidity;BME280_pressure;Samples;Min_cycle;Max_cycle;Signal;HPM_P1;HPM_P2
2021/12/11 00:00:58;;;;;;;17.65;7.35;;;;;;;2.13;100.00;100445.31;5076059;28;20042;-72
2021/12/11 00:03:33;;;;;;;15.90;7.82;;;;;;;2.11;100.00;100448.28;5078947;28;20036;-72
2021/12/11 00:06:13;;;;;;;19.45;7.25;;;;;;;2.10;100.00;100445.81;5064750;28;20028;-71
2021/12/11 00:08:38;;;;;;;18.60;7.63;;;;;;;2.06;100.00;100441.88;5080042;28;20464;-72
2021/12/11 00:11:20;;;;;;;19.83;7.32;;;;;;;2.05;100.00;100442.94;5094116;28;20117;-72
2021/12/11 00:13:46;;;;;;;14.93;6.38;;;;;;;2.04;100.00;100444.03;5059296;28;20028;-72
2021/12/11 00:16:14;;;;;;;14.68;6.53;;;;;;;2.01;100.00;100448.09;5065492;28;20492;-72
2021/12/11 00:18:40;;;;;;;20.40;5.80;;;;;;;2.00;100.00;100452.69;5073636;28;20513;-72
2021/12/11 00:21:12;;;;;;;13.35;5.82;;;;;;;1.98;100.00;100454.88;5061788;28;20098;-72
2021/12/11 00:23:45;;;;;;;16.67;5.80;;;;;;;1.95;100.00;100452.63;5079617;28;20024;-72
2021/12/11 00:26:12;;;;;;;12.77;5.55;;;;;;;1.94;100.00;100452.84;5047011;28;20024;-72
2021/12/11 00:28:48;;;;;;;14.60;5.72;;;;;;;1.90;100.00;100451.66;5062949;28;20534;-72
2021/12/11 00:31:14;;;;;;;14.77;5.57;;;;;;;1.89;100.00;100459.03;5064689;28;20072;-72
2021/12/11 00:33:40;;;;;;;16.45;6.07;;;;;;;1.86;100.00;100467.72;5086204;28;20036;-72
2021/12/11 00:36:10;;;;;;;14.07;5.72;;;;;;;1.85;100.00;100478.91;5062777;28;20143;-72
2021/12/11 00:38:36;;;;;;;15.00;5.53;;;;;;;1.82;100.00;100480.22;5093834;28;20040;-72
2021/12/11 00:41:03;;;;;;;16.27;5.72;;;;;;;1.82;100.00;100473.91;5094718;28;20579;-72
2021/12/11 00:43:30;;;;;;;13.57;5.03;;;;;;;1.82;100.00;100460.22;5066473;28;20498;-72
2021/12/11 00:45:57;;;;;;;13.80;5.32;;;;;;;1.81;100.00;100470.31;5067804;28;20027;-72
2021/12/11 00:48:24;;;;;;;15.00;4.75;;;;;;;1.84;100.00;100474.50;5072505;28;20472;-72
2021/12/11 00:50:54;;;;;;;13.50;5.18;;;;;;;1.83;100.00;100481.88;5070762;28;20047;-71
2021/12/11 00:53:29;;;;;;;17.58;5.63;;;;;;;1.84;100.00;100486.31;5082574;28;20039;-72
2021/12/11 00:55:57;;;;;;;15.60;5.45;;;;;;;1.86;100.00;100494.28;5045479;28;20381;-72
2021/12/11 00:58:33;;;;;;;10.57;4.68;;;;;;;1.88;100.00;100482.00;5095545;28;20693;-71
2021/12/11 01:01:08;;;;;;;16.45;4.82;;;;;;;1.87;100.00;100480.34;5063198;28;20039;-72
2021/12/11 01:03:46;;;;;;;10.98;4.45;;;;;;;1.90;100.00;100490.84;5099943;28;20043;-72
2021/12/11 01:06:19;;;;;;;17.45;4.60;;;;;;;1.92;100.00;100494.19;5059617;28;20047;-72
2021/12/11 01:08:51;;;;;;;11.90;4.50;;;;;;;1.93;100.00;100490.34;5078735;28;20028;-72
2021/12/11 01:11:29;;;;;;;13.60;4.88;;;;;;;1.96;100.00;100506.31;5066579;28;20479;-72
2021/12/11 01:14:24;;;;;;;13.88;5.22;;;;;;;1.97;100.00;100509.88;5078250;28;20028;-72
2021/12/11 01:17:12;;;;;;;18.95;4.63;;;;;;;1.99;100.00;100516.78;5081355;28;20039;-72
2021/12/11 01:19:44;;;;;;;13.70;4.30;;;;;;;2.00;100.00;100512.97;5068182;28;20116;-72
2021/12/11 01:22:22;;;;;;;10.85;4.40;;;;;;;2.03;100.00;100530.00;5065994;28;20086;-72
2021/12/11 01:24:51;;;;;;;13.10;4.53;;;;;;;2.04;100.00;100529.78;5066794;28;20419;-72
2021/12/11 01:27:19;;;;;;;14.18;4.53;;;;;;;2.04;100.00;100524.31;5077099;28;20028;-72
2021/12/11 01:29:46;;;;;;;10.05;4.07;;;;;;;2.05;100.00;100528.69;5078707;28;20112;-72
2021/12/11 01:32:12;;;;;;;13.55;4.40;;;;;;;2.05;100.00;100519.66;5066701;28;20031;-72
2021/12/11 01:34:38;;;;;;;13.95;4.55;;;;;;;2.05;100.00;100522.41;5058032;28;20485;-72
2021/12/11 01:37:03;;;;;;;11.73;3.90;;;;;;;2.04;100.00;100526.22;5072702;28;20024;-72
2021/12/11 01:39:31;;;;;;;12.50;4.32;;;;;;;2.05;100.00;100527.88;5081240;28;20036;-72
2021/12/11 01:41:57;;;;;;;11.50;3.92;;;;;;;2.04;100.00;100526.22;5077475;28;20027;-72
2021/12/11 01:44:30;;;;;;;13.57;4.60;;;;;;;2.01;100.00;100525.63;5069327;28;20032;-72
2021/12/11 01:47:16;;;;;;;10.13;3.75;;;;;;;2.01;100.00;100524.78;5068050;28;20024;-72
2021/12/11 01:49:43;;;;;;;10.93;4.07;;;;;;;1.98;100.00;100519.78;5060346;28;20053;-72
2021/12/11 01:53:01;;;;;;;9.48;3.85;;;;;;;1.96;100.00;100530.13;5046145;28;20531;-72
2021/12/11 01:55:48;;;;;;;10.68;3.65;;;;;;;1.95;100.00;100534.78;5053805;28;20115;-72
2021/12/11 01:58:16;;;;;;;11.45;4.05;;;;;;;1.94;100.00;100549.53;5079910;28;20165;-72
2021/12/11 02:00:46;;;;;;;13.55;4.50;;;;;;;1.93;100.00;100539.66;5058648;28;20087;-72
2021/12/11 02:03:18;;;;;;;16.75;4.68;;;;;;;1.91;100.00;100547.25;5097415;28;20488;-72
2021/12/11 02:05:44;;;;;;;12.25;4.32;;;;;;;1.88;100.00;100564.16;5080750;28;20032;-72
2021/12/11 02:08:15;;;;;;;12.48;3.97;;;;;;;1.87;100.00;100573.47;5064939;28;20035;-72
2021/12/11 02:10:46;;;;;;;10.52;4.03;;;;;;;1.85;100.00;100572.03;5081103;28;20032;-71
2021/12/11 02:13:15;;;;;;;14.85;4.50;;;;;;;1.83;100.00;100577.72;5079474;28;20025;-72
2021/12/11 02:15:48;;;;;;;12.20;4.03;;;;;;;1.84;100.00;100578.56;5081071;28;20484;-72
2021/12/11 02:18:33;;;;;;;10.70;4.03;;;;;;;1.83;100.00;100577.72;5087832;28;20059;-72
2021/12/11 02:21:02;;;;;;;8.75;4.18;;;;;;;1.84;100.00;100584.91;5079762;28;20380;-72
2021/12/11 02:23:27;;;;;;;11.50;4.22;;;;;;;1.82;100.00;100592.50;5072438;28;20024;-72
2021/12/11 02:25:59;;;;;;;11.52;3.92;;;;;;;1.83;100.00;100588.69;5098340;28;20035;-72
2021/12/11 02:28:29;;;;;;;11.05;4.25;;;;;;;1.84;100.00;100587.63;5082566;28;20078;-72
2021/12/11 02:31:13;;;;;;;14.40;4.75;;;;;;;1.86;100.00;100593.69;5079709;28;20040;-72
2021/12/11 02:33:41;;;;;;;14.23;4.45;;;;;;;1.89;100.00;100585.00;5103856;28;20027;-72
2021/12/11 02:36:11;;;;;;;11.60;4.07;;;;;;;1.90;100.00;100588.59;5081118;28;20058;-72
2021/12/11 02:39:00;;;;;;;13.65;4.32;;;;;;;1.93;100.00;100593.59;5081010;28;20024;-72
2021/12/11 02:41:36;;;;;;;15.65;3.63;;;;;;;1.96;100.00;100593.13;5096643;28;20035;-72
2021/12/11 02:44:28;;;;;;;9.00;3.70;;;;;;;1.99;100.00;100593.50;5080892;28;20481;-72
2021/12/11 02:47:07;;;;;;;12.35;3.95;;;;;;;2.01;100.00;100596.84;5069779;28;20086;-72
2021/12/11 02:49:40;;;;;;;11.30;3.65;;;;;;;2.08;100.00;100598.63;5070779;28;20036;-72
2021/12/11 02:52:19;;;;;;;10.00;3.72;;;;;;;2.07;100.00;100594.22;5063752;28;20024;-72
2021/12/11 02:54:48;;;;;;;12.65;3.70;;;;;;;2.11;100.00;100600.91;5097072;28;20044;-72
2021/12/11 02:57:22;;;;;;;8.35;3.30;;;;;;;2.11;100.00;100596.25;5080555;28;20036;-72
2021/12/11 02:59:48;;;;;;;6.95;3.58;;;;;;;2.12;100.00;100595.19;5079606;28;20081;-72
2021/12/11 03:02:23;;;;;;;8.43;3.20;;;;;;;2.12;100.00;100608.88;5078035;28;20032;-72
2021/12/11 03:04:53;;;;;;;9.23;3.10;;;;;;;2.14;100.00;100622.34;5065622;28;20047;-72
2021/12/11 03:07:23;;;;;;;7.93;3.30;;;;;;;2.12;100.00;100616.28;5063346;28;20034;-72
2021/12/11 03:09:52;;;;;;;12.75;3.35;;;;;;;2.14;100.00;100625.06;5090467;28;20607;-72
2021/12/11 03:12:17;;;;;;;9.15;3.90;;;;;;;2.13;100.00;100620.69;5087612;28;20028;-72
2021/12/11 03:14:43;;;;;;;9.68;3.05;;;;;;;2.13;100.00;100620.69;5062350;28;20072;-72
2021/12/11 03:17:09;;;;;;;8.75;3.17;;;;;;;2.13;100.00;100618.78;5088893;28;20573;-72
2021/12/11 03:19:36;;;;;;;7.25;3.10;;;;;;;2.12;100.00;100619.03;5070298;28;20629;-72
2021/12/11 03:22:04;;;;;;;9.57;3.50;;;;;;;2.12;100.00;100621.75;5082348;28;20035;-72
2021/12/11 03:24:30;;;;;;;10.02;3.70;;;;;;;2.11;100.00;100634.59;5067180;28;20035;-72
2021/12/11 03:26:55;;;;;;;7.07;3.17;;;;;;;2.10;100.00;100643.06;5052260;28;20536;-72
2021/12/11 03:29:21;;;;;;;12.00;3.20;;;;;;;2.10;100.00;100640.34;5091843;28;20036;-72
2021/12/11 03:31:46;;;;;;;9.30;3.38;;;;;;;2.09;100.00;100642.25;5100210;28;20036;-72
2021/12/11 03:34:16;;;;;;;10.35;3.05;;;;;;;2.08;100.00;100642.47;5080679;28;20114;-72
2021/12/11 03:36:41;;;;;;;9.70;3.08;;;;;;;2.07;100.00;100643.53;5067444;28;20024;-72
2021/12/11 03:39:28;;;;;;;10.52;2.88;;;;;;;2.08;100.00;100628.75;5078405;28;20467;-72
2021/12/11 03:41:55;;;;;;;11.68;3.25;;;;;;;2.06;100.00;100626.25;5079913;28;20068;-72
2021/12/11 03:44:21;;;;;;;7.53;2.50;;;;;;;2.07;100.00;100629.84;5077241;28;20028;-72
2021/12/11 03:46:48;;;;;;;11.07;2.83;;;;;;;2.04;100.00;100627.56;5099844;28;20035;-72
2021/12/11 03:49:16;;;;;;;12.95;4.63;;;;;;;2.04;100.00;100633.88;5076532;28;20036;-72
2021/12/11 03:51:44;;;;;;;9.10;2.70;;;;;;;2.02;100.00;100633.28;5078654;28;20055;-72
2021/12/11 03:54:12;;;;;;;10.13;2.85;;;;;;;2.00;100.00;100632.66;5081742;28;20055;-72
2021/12/11 03:56:37;;;;;;;7.93;2.85;;;;;;;1.99;100.00;100640.06;5072391;28;20035;-71
2021/12/11 03:59:08;;;;;;;8.65;2.88;;;;;;;1.97;100.00;100636.72;5077990;28;20086;-72
2021/12/11 04:01:35;;;;;;;6.03;2.30;;;;;;;1.97;100.00;100639.44;5096675;28;20024;-72
2021/12/11 04:04:05;;;;;;;10.10;3.58;;;;;;;1.97;100.00;100638.63;5077909;28;20621;-72
2021/12/11 04:06:31;;;;;;;9.82;2.88;;;;;;;1.96;100.00;100646.00;5096383;28;20085;-71
2021/12/11 04:08:57;;;;;;;9.18;3.30;;;;;;;1.94;100.00;100648.13;5096217;28;20028;-72
2021/12/11 04:11:25;;;;;;;7.50;3.20;;;;;;;1.95;100.00;100655.31;5078397;28;20507;-72
2021/12/11 04:13:54;;;;;;;11.63;3.60;;;;;;;1.91;100.00;100651.34;5065616;28;20032;-72
2021/12/11 04:16:20;;;;;;;11.38;3.70;;;;;;;1.93;100.00;100654.69;5096918;28;20028;-71
2021/12/11 04:18:45;;;;;;;13.82;3.83;;;;;;;1.92;100.00;100663.13;5064559;28;20024;-72
2021/12/11 04:21:11;;;;;;;10.60;3.13;;;;;;;1.92;100.00;100664.00;5078013;28;20123;-72
2021/12/11 04:23:37;;;;;;;10.48;3.13;;;;;;;1.92;100.00;100661.25;5069365;28;20033;-72
2021/12/11 04:26:04;;;;;;;10.25;3.47;;;;;;;1.92;100.00;100652.19;5097434;28;20032;-72
2021/12/11 04:28:30;;;;;;;9.00;3.20;;;;;;;1.93;100.00;100654.69;5050648;28;20409;-72
2021/12/11 04:31:03;;;;;;;11.07;3.08;;;;;;;1.93;100.00;100651.97;5066346;28;20027;-72
2021/12/11 04:33:29;;;;;;;12.02;3.85;;;;;;;1.94;100.00;100655.53;5063513;28;20052;-72
2021/12/11 04:35:54;;;;;;;10.45;3.55;;;;;;;1.94;100.00;100661.84;5037245;28;20075;-72
2021/12/11 04:38:20;;;;;;;10.63;3.00;;;;;;;1.94;100.00;100664.56;5063340;28;20036;-72
2021/12/11 04:40:49;;;;;;;9.23;3.30;;;;;;;1.95;100.00;100674.47;5093430;28;20099;-72
2021/12/11 04:43:18;;;;;;;8.88;3.03;;;;;;;1.95;100.00;100682.69;5072296;28;20035;-72
2021/12/11 04:45:45;;;;;;;10.82;3.38;;;;;;;1.94;100.00;100683.75;5064816;28;20036;-72
2021/12/11 04:48:29;;;;;;;7.80;2.80;;;;;;;1.96;100.00;100687.09;5094193;28;20099;-72
2021/12/11 04:51:12;;;;;;;7.72;2.92;;;;;;;1.90;100.00;100684.47;5092313;28;20544;-72
2021/12/11 04:53:50;;;;;;;9.18;3.38;;;;;;;1.90;100.00;100693.50;5096829;28;20052;-72
2021/12/11 05:02:09;;;;;;;14.18;3.40;;;;;;;1.84;100.00;100699.91;5073859;28;20033;-72
2021/12/11 05:07:19;;;;;;;13.43;3.30;;;;;;;1.82;100.00;100696.56;5095665;28;20028;-72
2021/12/11 05:10:12;;;;;;;11.32;3.20;;;;;;;1.82;100.00;100702.06;5072206;28;20481;-72
2021/12/11 05:12:38;;;;;;;9.77;3.00;;;;;;;1.83;100.00;100697.41;5067913;28;20107;-72
2021/12/11 05:15:09;;;;;;;11.63;3.55;;;;;;;1.81;100.00;100700.34;5060482;28;20052;-72
2021/12/11 05:17:34;;;;;;;11.45;3.65;;;;;;;1.82;100.00;100707.53;5076685;28;20104;-72
2021/12/11 05:20:00;;;;;;;9.00;3.25;;;;;;;1.82;100.00;100706.69;5065256;28;20036;-72
2021/12/11 05:22:25;;;;;;;11.38;3.33;;;;;;;1.82;100.00;100714.91;5044394;28;20043;-72
2021/12/11 05:24:53;;;;;;;11.75;3.20;;;;;;;1.84;100.00;100715.50;5058429;28;20032;-72
2021/12/11 05:27:19;;;;;;;8.63;3.38;;;;;;;1.83;100.00;100711.94;5060345;28;20047;-72
2021/12/11 05:29:45;;;;;;;12.55;3.75;;;;;;;1.85;100.00;100720.75;5067031;28;20038;-72
2021/12/11 05:32:12;;;;;;;10.85;3.30;;;;;;;1.86;100.00;100719.69;5053138;28;20040;-72
2021/12/11 05:34:37;;;;;;;9.07;3.33;;;;;;;1.85;100.00;100718.00;5058863;28;20028;-72
2021/12/11 05:37:03;;;;;;;11.02;3.55;;;;;;;1.86;100.00;100718.84;5072597;28;20031;-71
2021/12/11 05:39:29;;;;;;;10.48;3.30;;;;;;;1.88;100.00;100719.47;5043129;28;20035;-71
2021/12/11 05:41:54;;;;;;;11.93;3.60;;;;;;;1.87;100.00;100715.88;5055385;28;20480;-71
2021/12/11 05:44:20;;;;;;;9.40;3.20;;;;;;;1.88;100.00;100712.06;5052360;28;20028;-72
2021/12/11 05:46:45;;;;;;;12.13;4.00;;;;;;;1.90;100.00;100714.59;5049348;28;20154;-72
2021/12/11 05:49:11;;;;;;;13.05;3.45;;;;;;;1.91;100.00;100717.09;5064758;28;20054;-72
2021/12/11 05:51:39;;;;;;;12.80;3.55;;;;;;;1.92;100.00;100717.91;5066789;28;20032;-72
2021/12/11 05:54:06;;;;;;;10.60;3.60;;;;;;;1.93;100.00;100719.59;5036733;28;20091;-72
2021/12/11 05:56:35;;;;;;;15.25;4.05;;;;;;;1.95;100.00;100717.44;5061731;28;20504;-72
2021/12/11 05:59:01;;;;;;;11.65;3.70;;;;;;;1.95;100.00;100717.44;5056253;28;20404;-72
2021/12/11 06:01:37;;;;;;;13.80;3.80;;;;;;;1.96;100.00;100719.97;5063346;28;20106;-72
2021/12/11 06:04:06;;;;;;;9.50;3.47;;;;;;;1.98;100.00;100717.84;5050514;28;20069;-72
2021/12/11 06:06:32;;;;;;;10.05;3.75;;;;;;;2.00;100.00;100732.13;5069221;28;20107;-72
2021/12/11 06:08:58;;;;;;;12.05;3.70;;;;;;;2.03;100.00;100728.09;5046275;28;20040;-72
2021/12/11 06:11:24;;;;;;;14.45;4.00;;;;;;;2.05;100.00;100727.88;5065671;28;20028;-72
2021/12/11 06:13:49;;;;;;;9.32;3.60;;;;;;;2.07;100.00;100734.78;5081313;28;20061;-72
2021/12/11 06:16:15;;;;;;;11.82;2.95;;;;;;;2.11;100.00;100743.38;5063783;28;20028;-72
2021/12/11 06:18:42;;;;;;;10.57;3.20;;;;;;;2.11;100.00;100748.84;5082094;28;20107;-72
2021/12/11 06:21:07;;;;;;;9.75;3.35;;;;;;;2.12;100.00;100745.06;5081272;28;20028;-72
2021/12/11 06:23:33;;;;;;;9.20;3.15;;;;;;;2.15;100.00;100744.59;5072972;28;20040;-72
2021/12/11 06:25:58;;;;;;;8.00;3.28;;;;;;;2.15;100.00;100750.91;5052838;28;20475;-72
2021/12/11 06:28:24;;;;;;;11.80;3.50;;;;;;;2.16;100.00;100758.03;5040077;28;20159;-72
2021/12/11 06:30:50;;;;;;;10.05;3.28;;;;;;;2.17;100.00;100770.69;5080014;28;20047;-72
2021/12/11 06:33:16;;;;;;;14.25;4.47;;;;;;;2.18;100.00;100766.03;5064221;28;20083;-72
2021/12/11 06:36:03;;;;;;;10.73;3.63;;;;;;;2.19;100.00;100767.69;5058770;28;20026;-72
2021/12/11 06:38:30;;;;;;;10.70;4.20;;;;;;;2.18;100.00;100766.88;5055385;28;20107;-72
2021/12/11 06:40:56;;;;;;;11.15;3.53;;;;;;;2.21;100.00;100769.16;5046205;28;20025;-72
2021/12/11 06:43:22;;;;;;;9.00;3.08;;;;;;;2.24;100.00;100768.69;5062212;28;20027;-72
2021/12/11 06:45:48;;;;;;;9.55;3.42;;;;;;;2.22;100.00;100769.97;5080378;28;20024;-72
2021/12/11 06:48:14;;;;;;;14.13;3.47;;;;;;;2.20;100.00;100774.84;5046884;28;20039;-72
2021/12/11 06:50:39;;;;;;;8.13;3.10;;;;;;;2.21;100.00;100773.78;5063652;28;20040;-72
2021/12/11 06:53:08;;;;;;;7.10;3.28;;;;;;;2.22;100.00;100775.44;5063503;28;20035;-72
2021/12/11 06:55:34;;;;;;;8.93;3.40;;;;;;;2.21;100.00;100782.84;5055956;28;20123;-72
2021/12/11 06:57:59;;;;;;;10.88;3.55;;;;;;;2.22;100.00;100775.44;5049839;28;20032;-72
2021/12/11 07:00:26;;;;;;;12.40;3.65;;;;;;;2.23;100.00;100777.16;5082710;28;20026;-71
2021/12/11 07:02:51;;;;;;;9.43;3.42;;;;;;;2.22;100.00;100786.41;5047810;28;20029;-72
2021/12/11 07:05:17;;;;;;;10.57;3.97;;;;;;;2.21;100.00;100788.31;5054283;28;20046;-72
2021/12/11 07:07:43;;;;;;;9.57;3.40;;;;;;;2.21;100.00;100782.00;5059282;28;20053;-72
2021/12/11 07:10:11;;;;;;;12.18;3.90;;;;;;;2.27;100.00;100786.56;5049098;28;20040;-72
2021/12/11 07:12:37;;;;;;;10.63;3.55;;;;;;;2.26;100.00;100786.78;5079049;28;20046;-72
2021/12/11 07:15:03;;;;;;;13.43;3.72;;;;;;;2.26;100.00;100789.53;5062161;28;20028;-72
2021/12/11 07:17:29;;;;;;;12.57;4.07;;;;;;;2.25;100.00;100791.44;5062119;28;20396;-72
2021/12/11 07:19:54;;;;;;;10.18;3.60;;;;;;;2.27;100.00;100793.94;5076669;28;20023;-72
2021/12/11 07:22:20;;;;;;;9.77;4.57;;;;;;;2.28;100.00;100792.88;5076693;28;20081;-72
2021/12/11 07:24:53;;;;;;;13.00;3.83;;;;;;;2.27;100.00;100800.25;5094669;28;20028;-72
2021/12/11 07:27:18;;;;;;;15.25;4.65;;;;;;;2.29;100.00;100795.41;5078450;28;20028;-72
2021/12/11 07:29:44;;;;;;;11.30;3.58;;;;;;;2.28;100.00;100799.19;5062430;28;20086;-72
2021/12/11 07:32:09;;;;;;;13.60;4.13;;;;;;;2.29;100.00;100800.88;5042519;28;20488;-72
2021/12/11 07:34:35;;;;;;;10.80;3.80;;;;;;;2.35;100.00;100808.16;5062094;28;20063;-72
2021/12/11 07:37:02;;;;;;;10.30;4.35;;;;;;;2.33;100.00;100804.81;5054308;28;20024;-72
2021/12/11 07:39:27;;;;;;;9.00;3.67;;;;;;;2.35;100.00;100804.59;5047510;28;20028;-72
2021/12/11 07:41:53;;;;;;;15.32;3.55;;;;;;;2.37;100.00;100808.78;5058067;28;20044;-72
2021/12/11 07:44:19;;;;;;;12.15;4.10;;;;;;;2.38;100.00;100806.88;5060061;28;20044;-72
2021/12/11 07:46:44;;;;;;;10.50;3.67;;;;;;;2.39;100.00;100811.28;5059486;28;20036;-71
2021/12/11 07:49:10;;;;;;;12.20;3.97;;;;;;;2.36;100.00;100812.56;5061186;28;20032;-73
2021/12/11 07:51:36;;;;;;;8.85;3.40;;;;;;;2.38;100.00;100815.09;5047419;28;20036;-73
2021/12/11 07:54:01;;;;;;;9.45;4.05;;;;;;;2.36;100.00;100818.03;5047388;28;20055;-72
2021/12/11 07:56:27;;;;;;;12.10;3.97;;;;;;;2.38;100.00;100815.09;5060537;28;20033;-72
2021/12/11 07:58:54;;;;;;;13.55;4.00;;;;;;;2.36;100.00;100812.56;5081675;28;20031;-72
2021/12/11 08:01:19;;;;;;;13.75;3.78;;;;;;;2.38;100.00;100815.09;5058001;28;20050;-72
2021/12/11 08:03:45;;;;;;;10.90;3.95;;;;;;;2.39;100.00;100828.53;5069725;28;20079;-72
2021/12/11 08:06:11;;;;;;;11.50;4.03;;;;;;;2.41;100.00;100826.41;5060484;28;20031;-72
2021/12/11 08:08:37;;;;;;;12.38;3.80;;;;;;;2.41;100.00;100834.63;5079268;28;20039;-72
2021/12/11 08:11:05;;;;;;;13.18;4.10;;;;;;;2.41;100.00;100842.88;5059250;28;20040;-72
2021/12/11 08:13:30;;;;;;;10.30;3.53;;;;;;;2.42;100.00;100850.03;5055134;28;20028;-72
2021/12/11 08:15:56;;;;;;;16.58;4.35;;;;;;;2.43;100.00;100856.34;5060705;28;20036;-72
2021/12/11 08:18:21;;;;;;;9.55;3.80;;;;;;;2.44;100.00;100856.09;5080070;28;20031;-72
2021/12/11 08:20:47;;;;;;;10.35;3.70;;;;;;;2.47;100.00;100865.78;5075967;28;20028;-72
2021/12/11 08:23:13;;;;;;;15.60;4.13;;;;;;;2.49;100.00;100862.81;5073685;28;20036;-71
2021/12/11 08:25:39;;;;;;;11.02;4.05;;;;;;;2.52;100.00;100881.53;5081230;28;20028;-72
2021/12/11 08:28:05;;;;;;;13.93;4.30;;;;;;;2.54;100.00;100879.41;5080941;28;20044;-72
2021/12/11 08:30:32;;;;;;;9.38;3.28;;;;;;;2.55;100.00;100879.16;5076877;28;20061;-72
2021/12/11 08:32:57;;;;;;;14.30;3.38;;;;;;;2.55;100.00;100876.41;5076963;28;20110;-72
2021/12/11 08:35:23;;;;;;;16.63;3.72;;;;;;;2.59;100.00;100880.38;5063716;28;20028;-71
2021/12/11 08:37:50;;;;;;;14.27;3.80;;;;;;;2.62;100.00;100885.41;5079870;28;20031;-72
2021/12/11 08:40:19;;;;;;;10.52;3.45;;;;;;;2.64;100.00;100876.94;5078088;28;20476;-72
2021/12/11 08:42:45;;;;;;;14.68;4.20;;;;;;;2.67;100.00;100881.94;5085180;28;20566;-72
2021/12/11 08:45:20;;;;;;;11.88;3.85;;;;;;;2.71;100.00;100880.44;5048422;28;20027;-72
2021/12/11 08:47:46;;;;;;;12.85;4.20;;;;;;;2.73;100.00;100889.25;5068337;28;20055;-72
2021/12/11 08:50:14;;;;;;;8.65;3.42;;;;;;;2.77;100.00;100895.94;5070503;28;20072;-72
2021/12/11 08:52:41;;;;;;;14.98;3.88;;;;;;;2.79;100.00;100899.28;5066156;28;20107;-72
2021/12/11 08:55:09;;;;;;;13.77;4.28;;;;;;;2.81;100.00;100902.63;5080512;28;20042;-72
2021/12/11 08:57:36;;;;;;;12.27;3.88;;;;;;;2.83;100.00;100897.75;5082866;28;20023;-72
2021/12/11 09:00:10;;;;;;;9.15;3.55;;;;;;;2.87;100.00;100904.47;5076810;28;20534;-72
2021/12/11 09:02:41;;;;;;;10.38;4.25;;;;;;;2.89;100.00;100910.53;5066334;28;20128;-70
2021/12/11 09:05:24;;;;;;;15.52;4.00;;;;;;;2.93;100.00;100915.56;5079299;28;20067;-70
2021/12/11 09:07:59;;;;;;;12.13;4.28;;;;;;;2.95;100.00;100910.66;5068860;28;20586;-70
2021/12/11 09:10:38;;;;;;;13.77;4.00;;;;;;;2.98;100.00;100912.94;5096261;28;20397;-70
2021/12/11 09:13:16;;;;;;;12.20;4.15;;;;;;;3.02;100.00;100919.66;5081129;28;20028;-70
2021/12/11 09:15:51;;;;;;;8.38;3.42;;;;;;;3.06;100.00;100923.59;5092082;28;20034;-70
2021/12/11 09:18:20;;;;;;;11.85;3.70;;;;;;;3.09;100.00;100928.59;5079283;28;20032;-70
2021/12/11 09:21:01;;;;;;;17.25;3.92;;;;;;;3.14;100.00;100929.56;5069092;28;20035;-70
2021/12/11 09:23:41;;;;;;;13.70;4.43;;;;;;;3.19;100.00;100936.28;5077297;28;20039;-71
2021/12/11 09:26:34;;;;;;;16.38;4.38;;;;;;;3.25;100.00;100946.31;5079593;28;20044;-72
2021/12/11 09:29:07;;;;;;;16.00;4.03;;;;;;;3.28;100.00;100943.94;5063349;28;20040;-72
2021/12/11 09:31:39;;;;;;;16.75;4.30;;;;;;;3.33;100.00;100946.81;5076660;28;20035;-72
2021/12/11 09:34:17;;;;;;;13.02;3.95;;;;;;;3.38;100.00;100945.28;5064711;28;20043;-72
2021/12/11 09:36:46;;;;;;;15.82;3.97;;;;;;;3.42;100.00;100949.22;5095909;28;20506;-72
2021/12/11 09:39:35;;;;;;;13.23;3.38;;;;;;;3.48;100.00;100943.63;5077633;28;20457;-72
2021/12/11 09:42:00;;;;;;;13.35;4.15;;;;;;;3.54;100.00;100945.44;5095340;28;20563;-72
2021/12/11 09:44:34;;;;;;;15.93;4.38;;;;;;;3.57;100.00;100942.19;5090823;28;20036;-72
2021/12/11 09:47:10;;;;;;;11.55;3.97;;;;;;;3.62;100.00;100937.88;5058380;28;20042;-72
2021/12/11 09:49:39;;;;;;;17.55;4.57;;;;;;;3.70;100.00;100943.88;5076419;28;20099;-72
2021/12/11 09:52:16;;;;;;;15.85;4.07;;;;;;;3.74;100.00;100950.56;5078175;28;20560;-72
2021/12/11 09:54:42;;;;;;;12.80;3.58;;;;;;;3.80;100.00;100944.13;5076407;28;20032;-72
2021/12/11 09:57:10;;;;;;;12.75;3.78;;;;;;;3.86;100.00;100950.56;5068728;28;20032;-72
2021/12/11 09:59:37;;;;;;;20.67;4.50;;;;;;;3.89;100.00;100947.34;5079934;28;20021;-72
2021/12/11 10:02:05;;;;;;;17.52;4.63;;;;;;;3.94;100.00;100955.72;5073698;28;20115;-72
2021/12/11 10:04:46;;;;;;;10.45;3.35;;;;;;;3.99;100.00;100960.50;5049279;28;20051;-72
2021/12/11 10:07:29;;;;;;;18.75;4.15;;;;;;;4.05;100.00;100962.28;5078493;28;20024;-72
2021/12/11 10:09:59;;;;;;;13.48;3.40;;;;;;;4.11;100.00;100966.81;5080820;28;20103;-72
2021/12/11 10:12:30;;;;;;;23.67;4.43;;;;;;;4.17;100.00;100967.75;5070432;28;20048;-72
2021/12/11 10:14:59;;;;;;;19.58;4.68;;;;;;;4.21;100.00;100972.56;5093475;28;20035;-72
2021/12/11 10:17:29;;;;;;;17.88;4.63;;;;;;;4.29;100.00;100973.25;5078157;28;20802;-73
2021/12/11 10:19:58;;;;;;;15.85;4.20;;;;;;;4.34;100.00;100968.69;5068889;28;20020;-72
2021/12/11 10:22:30;;;;;;;18.85;4.70;;;;;;;4.40;100.00;100965.00;5083484;28;20039;-72
2021/12/11 10:24:56;;;;;;;17.77;5.22;;;;;;;4.47;100.00;100979.44;5068883;28;20031;-72
2021/12/11 10:27:24;;;;;;;11.48;4.53;;;;;;;4.53;100.00;100969.38;5082376;28;20104;-72
2021/12/11 10:29:50;;;;;;;16.70;4.50;;;;;;;4.57;100.00;100967.84;5080230;28;20052;-72
2021/12/11 10:32:19;;;;;;;13.40;4.63;;;;;;;4.66;100.00;100977.38;5062001;28;20032;-72
2021/12/11 10:34:47;;;;;;;18.55;4.88;;;;;;;4.70;100.00;100973.03;5098548;28;20173;-72
2021/12/11 10:37:16;;;;;;;22.27;4.75;;;;;;;4.76;100.00;100979.47;5046982;28;20031;-72
2021/12/11 10:39:50;;;;;;;19.27;4.95;;;;;;;4.83;100.00;100982.94;5067850;28;20020;-72
2021/12/11 10:42:15;;;;;;;20.75;5.25;;;;;;;4.88;100.00;100987.72;5083671;28;20099;-72
2021/12/11 10:44:43;;;;;;;24.42;5.15;;;;;;;4.95;100.00;100980.13;5051206;28;20036;-72
2021/12/11 10:47:18;;;;;;;26.70;5.15;;;;;;;5.01;100.00;100981.91;5066609;28;20035;-72
2021/12/11 10:49:43;;;;;;;23.45;5.07;;;;;;;5.06;100.00;100982.00;5099030;28;20066;-72
2021/12/11 10:52:18;;;;;;;16.63;5.10;;;;;;;5.14;100.00;100983.53;5052680;28;20123;-72
2021/12/11 10:54:43;;;;;;;22.40;4.80;;;;;;;5.20;100.00;100976.19;5081434;28;20028;-73
2021/12/11 10:57:09;;;;;;;23.50;5.10;;;;;;;5.26;100.00;100972.47;5064218;28;20019;-73
2021/12/11 10:59:37;;;;;;;17.90;5.00;;;;;;;5.33;100.00;100984.16;5084108;28;20035;-71
2021/12/11 11:02:12;;;;;;;19.95;4.85;;;;;;;5.38;100.00;100985.09;5078481;28;20034;-72
2021/12/11 11:04:41;;;;;;;21.95;5.38;;;;;;;5.44;100.00;100983.25;5078102;28;20051;-72
2021/12/11 11:07:06;;;;;;;23.58;4.88;;;;;;;5.49;100.00;100977.84;5065911;28;20028;-72
2021/12/11 11:09:32;;;;;;;14.90;4.22;;;;;;;5.52;100.00;100982.84;5064682;28;20085;-72
2021/12/11 11:12:00;;;;;;;16.73;3.78;;;;;;;5.54;100.00;100977.09;5064387;28;20031;-72
2021/12/11 11:14:25;;;;;;;20.20;4.38;;;;;;;5.59;100.00;100979.94;5089567;28;20050;-72
2021/12/11 11:16:54;;;;;;;14.00;4.85;;;;;;;5.61;100.00;100975.00;5079917;28;20095;-72
2021/12/11 11:19:24;;;;;;;19.00;3.85;;;;;;;5.64;100.00;100976.44;5081720;28;20065;-72
2021/12/11 11:21:56;;;;;;;16.77;4.13;;;;;;;5.69;100.00;100973.78;5085144;28;20032;-72
2021/12/11 11:24:22;;;;;;;23.45;4.55;;;;;;;5.75;100.00;100965.31;5063144;28;20035;-70
2021/12/11 11:26:48;;;;;;;18.10;4.75;;;;;;;5.83;100.00;100969.59;5067603;28;20469;-70
2021/12/11 11:29:18;;;;;;;17.92;4.85;;;;;;;5.89;100.00;100971.34;5098232;28;20102;-70
2021/12/11 11:31:44;;;;;;;17.55;5.03;;;;;;;5.98;100.00;100974.53;5078998;28;20055;-70
2021/12/11 11:34:14;;;;;;;19.20;5.40;;;;;;;6.03;100.00;100961.66;5084557;28;20036;-70
2021/12/11 11:36:40;;;;;;;24.95;5.88;;;;;;;6.12;100.00;100963.97;5062317;28;20028;-70
2021/12/11 11:39:09;;;;;;;18.88;5.07;;;;;;;6.17;100.00;100966.81;5095295;28;20031;-70